createdAt,value
2018-08-28T00:01:38.508Z,54.20
2018-08-28T00:04:06.930Z,54.20
2018-08-28T00:06:35.410Z,54.20
2018-08-28T00:09:04.688Z,54.20
2018-08-28T00:11:33.296Z,54.20
2018-08-28T00:14:01.761Z,54.20
2018-08-28T00:16:30.196Z,54.20
2018-08-28T00:18:58.650Z,54.20
2018-08-28T00:21:27.090Z,54.50
2018-08-28T00:23:56.248Z,54.20
2018-08-28T00:26:24.650Z,54.20
2018-08-28T00:28:53.086Z,54.20
2018-08-28T00:31:21.513Z,54.20
2018-08-28T00:33:49.914Z,54.20
2018-08-28T00:36:18.381Z,54.20
2018-08-28T00:38:46.847Z,54.20
2018-08-28T00:41:15.350Z,54.20
2018-08-28T00:43:43.860Z,54.20
2018-08-28T00:46:12.452Z,54.20
2018-08-28T00:48:40.902Z,54.20
2018-08-28T00:51:09.278Z,54.20
2018-08-28T00:53:38.031Z,54.20
2018-08-28T00:56:07.291Z,54.20
2018-08-28T00:58:35.850Z,54.20
2018-08-28T01:01:04.354Z,54.20
2018-08-28T01:03:32.789Z,54.20
2018-08-28T01:06:01.240Z,54.20
2018-08-28T01:08:29.706Z,54.20
2018-08-28T01:10:58.161Z,54.30
2018-08-28T01:13:26.575Z,54.20
2018-08-28T01:15:55.054Z,54.20
2018-08-28T01:18:23.562Z,54.20
2018-08-28T01:20:52.076Z,54.20
2018-08-28T01:23:20.516Z,54.20
2018-08-28T01:25:48.940Z,54.20
2018-08-28T01:28:17.449Z,54.20
2018-08-28T01:30:45.895Z,54.20
2018-08-28T01:33:14.429Z,54.20
2018-08-28T01:35:42.939Z,54.20
2018-08-28T01:38:11.350Z,54.20
2018-08-28T01:40:40.495Z,54.20
2018-08-28T01:43:14.297Z,54.20
2018-08-28T01:45:42.747Z,54.20
2018-08-28T01:48:11.151Z,54.20
2018-08-28T01:50:39.806Z,54.20
2018-08-28T01:53:08.821Z,54.20
2018-08-28T01:55:37.257Z,54.20
2018-08-28T01:58:05.685Z,54.20
2018-08-28T02:00:34.340Z,54.20
2018-08-28T02:03:02.742Z,54.20
2018-08-28T02:05:31.252Z,54.20
2018-08-28T02:07:59.747Z,54.20
2018-08-28T02:10:28.273Z,54.20
2018-08-28T02:12:56.692Z,54.20
2018-08-28T02:15:25.204Z,54.20
2018-08-28T02:17:53.697Z,54.20
2018-08-28T02:20:22.101Z,54.20
2018-08-28T02:22:50.538Z,54.20
2018-08-28T02:25:18.933Z,54.20
2018-08-28T02:27:49.031Z,54.20
2018-08-28T02:30:18.759Z,54.20
2018-08-28T02:32:47.262Z,54.20
2018-08-28T02:35:15.755Z,54.10
2018-08-28T02:37:44.441Z,54.20
2018-08-28T02:40:12.846Z,54.20
2018-08-28T02:42:41.266Z,54.20
2018-08-28T02:45:09.767Z,54.10
2018-08-28T02:47:38.649Z,54.10
2018-08-28T02:50:07.069Z,54.10
2018-08-28T02:52:35.510Z,54.10
2018-08-28T02:55:03.953Z,54.20
2018-08-28T02:57:32.399Z,54.20
2018-08-28T03:00:00.782Z,54.10
2018-08-28T03:02:29.284Z,54.20
2018-08-28T03:04:57.706Z,54.10
2018-08-28T03:07:26.147Z,54.10
2018-08-28T03:09:54.546Z,54.20
2018-08-28T03:12:23.087Z,54.20
2018-08-28T03:14:51.496Z,54.20
2018-08-28T03:17:19.920Z,54.20
2018-08-28T03:19:48.518Z,54.20
2018-08-28T03:22:17.014Z,54.10
2018-08-28T03:24:45.468Z,54.20
2018-08-28T03:27:13.880Z,54.20
2018-08-28T03:29:42.290Z,54.20
2018-08-28T03:32:10.906Z,54.20
2018-08-28T03:34:40.202Z,54.20
2018-08-28T03:37:08.616Z,54.20
2018-08-28T03:39:37.314Z,54.20
2018-08-28T03:42:05.718Z,54.10
2018-08-28T03:44:34.327Z,54.10
2018-08-28T03:47:02.905Z,54.20
2018-08-28T03:49:31.340Z,54.70
2018-08-28T03:51:59.749Z,54.10
2018-08-28T03:54:28.466Z,54.10
2018-08-28T03:56:56.887Z,54.10
2018-08-28T03:59:25.399Z,54.10
2018-08-28T04:01:53.947Z,54.10
2018-08-28T04:04:22.536Z,54.10
2018-08-28T04:06:51.042Z,54.10
2018-08-28T04:09:19.529Z,54.20
2018-08-28T04:11:47.991Z,54.10
2018-08-28T04:14:16.441Z,54.10
2018-08-28T04:16:44.894Z,54.10
2018-08-28T04:19:13.373Z,54.10
2018-08-28T04:21:41.759Z,54.10
2018-08-28T04:24:10.273Z,54.20
2018-08-28T04:26:39.449Z,54.10
2018-08-28T04:29:07.944Z,53.80
2018-08-28T04:31:36.359Z,54.10
2018-08-28T04:34:04.795Z,54.10
2018-08-28T04:36:33.283Z,54.10
2018-08-28T04:39:01.687Z,54.10
2018-08-28T04:41:30.065Z,54.10
2018-08-28T04:43:58.529Z,54.10
2018-08-28T04:46:27.049Z,54.10
2018-08-28T04:48:55.835Z,54.20
2018-08-28T04:51:24.214Z,54.20
2018-08-28T04:53:52.670Z,54.10
2018-08-28T04:56:21.281Z,54.10
2018-08-28T04:58:49.965Z,54.20
2018-08-28T05:01:18.358Z,54.20
2018-08-28T05:03:46.898Z,54.20
2018-08-28T05:06:15.305Z,54.10
2018-08-28T05:08:43.872Z,54.20
2018-08-28T05:11:12.264Z,54.20
2018-08-28T05:13:40.715Z,54.10
2018-08-28T05:16:09.141Z,54.10
2018-08-28T05:18:37.713Z,54.10
2018-08-28T05:21:06.142Z,54.10
2018-08-28T05:23:34.775Z,54.10
2018-08-28T05:26:03.165Z,54.20
2018-08-28T05:28:31.597Z,54.20
2018-08-28T05:31:00.010Z,54.20
2018-08-28T05:33:28.514Z,54.10
2018-08-28T05:35:56.914Z,54.10
2018-08-28T05:38:25.352Z,54.20
2018-08-28T05:40:53.801Z,54.10
2018-08-28T05:43:22.218Z,54.20
2018-08-28T05:45:50.625Z,54.20
2018-08-28T05:48:19.065Z,54.20
2018-08-28T05:50:47.480Z,54.20
2018-08-28T05:53:16.103Z,54.20
2018-08-28T05:55:44.661Z,54.20
2018-08-28T05:58:13.166Z,54.20
2018-08-28T06:00:41.642Z,54.20
2018-08-28T06:03:10.127Z,54.20
2018-08-28T06:05:38.705Z,54.20
2018-08-28T06:08:07.216Z,54.20
2018-08-28T06:10:35.648Z,54.20
2018-08-28T06:13:04.041Z,54.20
2018-08-28T06:15:32.434Z,54.20
2018-08-28T06:18:00.907Z,54.20
2018-08-28T06:20:29.336Z,54.80
2018-08-28T06:22:57.814Z,54.20
2018-08-28T06:25:26.199Z,54.20
2018-08-28T06:27:54.720Z,54.20
2018-08-28T06:30:23.427Z,54.20
2018-08-28T06:32:51.865Z,54.20
2018-08-28T06:35:20.301Z,54.20
2018-08-28T06:37:48.710Z,54.20
2018-08-28T06:40:17.209Z,54.90
2018-08-28T06:42:45.671Z,54.20
2018-08-28T06:45:14.121Z,54.30
2018-08-28T06:47:42.522Z,54.20
2018-08-28T06:50:11.160Z,54.20
2018-08-28T06:52:39.983Z,54.20
2018-08-28T06:55:08.487Z,54.20
2018-08-28T06:57:37.334Z,54.20
2018-08-28T07:00:06.252Z,54.20
2018-08-28T07:02:34.731Z,54.20
2018-08-28T07:05:03.255Z,54.20
2018-08-28T07:07:31.940Z,54.20
2018-08-28T07:10:00.399Z,54.20
2018-08-28T07:12:28.808Z,54.20
2018-08-28T07:14:57.257Z,54.20
2018-08-28T07:17:25.701Z,54.20
2018-08-28T07:19:54.138Z,54.20
2018-08-28T07:22:22.549Z,54.20
2018-08-28T07:24:51.011Z,54.20
2018-08-28T07:27:19.582Z,54.20
2018-08-28T07:29:48.137Z,54.20
2018-08-28T07:32:16.569Z,54.20
2018-08-28T07:34:45.035Z,54.20
2018-08-28T07:37:13.497Z,54.00
2018-08-28T07:39:41.917Z,54.20
2018-08-28T07:42:10.517Z,54.20
2018-08-28T07:44:39.631Z,54.20
2018-08-28T07:47:08.014Z,54.20
2018-08-28T07:49:36.505Z,54.20
2018-08-28T07:52:04.949Z,54.20
2018-08-28T07:54:33.395Z,54.20
2018-08-28T07:57:01.818Z,54.20
2018-08-28T07:59:30.331Z,54.20
2018-08-28T08:01:58.738Z,54.20
2018-08-28T08:04:27.266Z,54.60
2018-08-28T08:06:55.858Z,54.20
2018-08-28T08:09:24.362Z,54.20
2018-08-28T08:11:52.795Z,54.20
2018-08-28T08:14:21.184Z,54.80
2018-08-28T08:16:49.604Z,54.20
2018-08-28T08:19:18.046Z,54.30
2018-08-28T08:21:46.417Z,54.20
2018-08-28T08:24:14.913Z,54.20
2018-08-28T08:26:43.308Z,54.20
2018-08-28T08:29:11.785Z,54.20
2018-08-28T08:31:40.531Z,54.20
2018-08-28T08:34:09.146Z,54.20
2018-08-28T08:36:37.807Z,54.20
2018-08-28T08:39:08.101Z,54.20
2018-08-28T08:41:36.537Z,54.20
2018-08-28T08:44:05.112Z,54.20
2018-08-28T08:46:33.721Z,54.20
2018-08-28T08:49:02.378Z,54.20
2018-08-28T08:51:30.802Z,54.20
2018-08-28T08:53:59.185Z,54.20
2018-08-28T08:56:27.567Z,54.20
2018-08-28T08:58:56.023Z,54.20
2018-08-28T09:01:24.523Z,54.20
2018-08-28T09:03:52.946Z,54.20
2018-08-28T09:06:21.429Z,54.20
2018-08-28T09:08:49.832Z,54.20
2018-08-28T09:11:18.311Z,54.20
2018-08-28T09:13:46.765Z,54.20
2018-08-28T09:16:15.278Z,54.20
2018-08-28T09:18:43.721Z,54.40
2018-08-28T09:21:12.170Z,54.20
2018-08-28T09:23:40.991Z,54.20
2018-08-28T09:26:09.501Z,54.20
2018-08-28T09:28:38.172Z,54.20
2018-08-28T09:31:06.720Z,54.20
2018-08-28T09:33:35.106Z,54.20
2018-08-28T09:36:03.517Z,54.20
2018-08-28T09:38:32.027Z,54.20
2018-08-28T09:41:00.514Z,54.10
2018-08-28T09:43:28.968Z,54.20
2018-08-28T09:45:57.464Z,54.20
2018-08-28T09:48:26.306Z,54.20
2018-08-28T09:50:54.770Z,54.20
2018-08-28T09:53:23.159Z,54.20
2018-08-28T09:55:51.614Z,54.10
2018-08-28T09:58:20.046Z,54.10
2018-08-28T10:00:53.905Z,54.20
2018-08-28T10:03:22.506Z,54.10
2018-08-28T10:05:51.392Z,54.20
2018-08-28T10:08:19.918Z,54.20
2018-08-28T10:10:48.442Z,54.10
2018-08-28T10:13:16.829Z,54.20
2018-08-28T10:15:45.324Z,54.20
2018-08-28T10:18:13.849Z,54.10
2018-08-28T10:20:42.524Z,54.20
2018-08-28T10:23:11.161Z,54.10
2018-08-28T10:25:39.774Z,54.10
2018-08-28T10:28:08.199Z,54.10
2018-08-28T10:30:36.609Z,54.10
2018-08-28T10:33:05.328Z,54.10
2018-08-28T10:35:33.797Z,54.10
2018-08-28T10:38:02.321Z,54.10
2018-08-28T10:40:30.828Z,54.10
2018-08-28T10:42:59.219Z,54.10
2018-08-28T10:45:27.778Z,54.10
2018-08-28T10:47:56.237Z,54.10
2018-08-28T10:50:24.686Z,54.10
2018-08-28T10:52:53.202Z,54.10
2018-08-28T10:55:21.530Z,54.10
2018-08-28T10:57:49.987Z,54.10
2018-08-28T11:00:18.553Z,54.10
2018-08-28T11:02:46.979Z,54.10
2018-08-28T11:05:15.652Z,54.10
2018-08-28T11:07:44.245Z,54.10
2018-08-28T11:10:12.755Z,54.10
2018-08-28T11:12:41.205Z,54.10
2018-08-28T11:15:09.826Z,54.10
2018-08-28T11:17:38.393Z,54.10
2018-08-28T11:20:06.931Z,54.10
2018-08-28T11:22:35.396Z,54.10
2018-08-28T11:25:03.856Z,54.10
2018-08-28T11:27:32.719Z,54.10
2018-08-28T11:30:01.413Z,54.10
2018-08-28T11:32:29.919Z,54.10
2018-08-28T11:34:58.372Z,54.10
2018-08-28T11:37:26.829Z,54.10
2018-08-28T11:39:55.314Z,54.10
2018-08-28T11:42:24.089Z,54.10
2018-08-28T11:44:52.534Z,54.60
2018-08-28T11:47:21.051Z,54.10
2018-08-28T11:49:49.461Z,54.10
2018-08-28T11:52:17.969Z,54.10
2018-08-28T11:54:46.417Z,54.10
2018-08-28T11:57:15.084Z,54.10
2018-08-28T11:59:43.536Z,54.10
2018-08-28T12:02:12.944Z,54.10
2018-08-28T12:04:41.374Z,54.10
2018-08-28T12:07:10.083Z,54.10
2018-08-28T12:09:38.701Z,54.10
2018-08-28T12:12:07.129Z,54.10
2018-08-28T12:14:35.663Z,54.10
2018-08-28T12:17:04.585Z,54.10
2018-08-28T12:19:33.225Z,54.10
2018-08-28T12:22:01.905Z,54.10
2018-08-28T12:24:30.369Z,54.10
2018-08-28T12:26:58.758Z,54.10
2018-08-28T12:29:27.225Z,54.10
2018-08-28T12:31:55.857Z,54.10
2018-08-28T12:34:25.000Z,54.10
2018-08-28T12:36:53.643Z,54.10
2018-08-28T12:39:22.003Z,54.10
2018-08-28T12:41:50.516Z,54.10
2018-08-28T12:44:18.949Z,54.10
2018-08-28T12:46:47.382Z,54.10
2018-08-28T12:49:15.887Z,54.10
2018-08-28T12:51:44.378Z,54.10
2018-08-28T12:54:13.098Z,54.10
2018-08-28T12:56:41.613Z,54.10
2018-08-28T12:59:10.085Z,54.10
2018-08-28T13:01:38.823Z,54.10
2018-08-28T13:04:07.313Z,54.10
2018-08-28T13:06:36.002Z,54.10
2018-08-28T13:09:05.316Z,54.10
2018-08-28T13:11:33.797Z,54.10
2018-08-28T13:14:02.296Z,54.70
2018-08-28T13:16:30.725Z,54.10
2018-08-28T13:18:59.237Z,54.10
2018-08-28T13:21:27.683Z,54.10
2018-08-28T13:23:56.093Z,54.10
2018-08-28T13:26:24.533Z,54.10
2018-08-28T13:28:52.945Z,54.10
2018-08-28T13:31:21.394Z,54.10
2018-08-28T13:33:49.939Z,54.10
2018-08-28T13:36:18.377Z,54.10
2018-08-28T13:38:47.105Z,54.10
2018-08-28T13:41:16.177Z,54.10
2018-08-28T13:43:45.721Z,54.10
2018-08-28T13:46:14.428Z,54.10
2018-08-28T13:48:45.898Z,54.10
2018-08-28T13:51:17.272Z,54.10
2018-08-28T13:53:46.475Z,54.10
2018-08-28T13:56:15.757Z,54.20
2018-08-28T13:58:45.820Z,54.20
2018-08-28T14:01:14.469Z,54.10
2018-08-28T14:03:42.982Z,54.10
2018-08-28T14:06:11.459Z,54.10
2018-08-28T14:08:40.280Z,54.60
2018-08-28T14:11:08.772Z,54.10
2018-08-28T14:13:41.029Z,54.00
2018-08-28T14:16:09.788Z,54.00
2018-08-28T14:18:41.380Z,53.90
2018-08-28T14:21:09.957Z,53.90
2018-08-28T14:23:38.785Z,53.90
2018-08-28T14:26:07.642Z,53.90
2018-08-28T14:28:37.997Z,54.10
2018-08-28T14:31:07.948Z,54.20
2018-08-28T14:33:37.890Z,54.20
2018-08-28T14:36:08.634Z,54.40
2018-08-28T14:38:38.713Z,54.40
2018-08-28T14:41:09.219Z,54.50
2018-08-28T14:43:38.351Z,54.50
2018-08-28T14:46:07.259Z,54.60
2018-08-28T14:48:37.278Z,54.60
2018-08-28T14:51:07.648Z,54.50
2018-08-28T14:53:37.387Z,54.50
2018-08-28T14:56:07.018Z,54.50
2018-08-28T14:58:35.442Z,54.40
2018-08-28T15:01:04.006Z,54.40
2018-08-28T15:03:34.043Z,54.40
2018-08-28T15:06:03.313Z,54.40
2018-08-28T15:08:32.143Z,54.90
2018-08-28T15:11:00.745Z,54.40
2018-08-28T15:13:29.442Z,54.30
2018-08-28T15:15:58.940Z,54.30
2018-08-28T15:18:28.847Z,54.30
2018-08-28T15:20:57.460Z,54.30
2018-08-28T15:23:25.920Z,54.30
2018-08-28T15:25:54.446Z,54.30
2018-08-28T15:28:22.879Z,54.20
2018-08-28T15:30:51.637Z,54.20
2018-08-28T15:33:20.053Z,54.20
2018-08-28T15:35:48.653Z,54.20
2018-08-28T15:38:17.557Z,54.30
2018-08-28T15:40:46.015Z,54.30
2018-08-28T15:43:14.539Z,54.30
2018-08-28T15:45:43.516Z,54.20
2018-08-28T15:48:12.155Z,54.20
2018-08-28T15:50:40.598Z,54.20
2018-08-28T15:53:09.081Z,54.20
2018-08-28T15:55:37.511Z,54.20
2018-08-28T15:58:05.961Z,54.20
2018-08-28T16:00:34.437Z,54.20
2018-08-28T16:03:02.838Z,54.30
2018-08-28T16:05:31.366Z,54.30
2018-08-28T16:08:00.620Z,54.40
2018-08-28T16:10:29.089Z,54.40
2018-08-28T16:12:57.463Z,54.40
2018-08-28T16:15:27.527Z,54.40
2018-08-28T16:17:56.481Z,54.40
2018-08-28T16:20:26.100Z,54.40
2018-08-28T16:23:00.255Z,54.80
2018-08-28T16:25:28.929Z,54.50
2018-08-28T16:27:57.401Z,54.50
2018-08-28T16:30:27.305Z,54.50
2018-08-28T16:32:55.911Z,54.50
2018-08-28T16:35:24.353Z,54.50
2018-08-28T16:37:52.901Z,54.50
2018-08-28T16:40:21.400Z,54.40
2018-08-28T16:42:49.824Z,54.50
2018-08-28T16:45:18.376Z,54.40
2018-08-28T16:47:46.985Z,54.50
2018-08-28T16:50:15.847Z,54.50
2018-08-28T16:52:44.246Z,54.50
2018-08-28T16:55:12.737Z,54.50
2018-08-28T16:57:41.243Z,54.50
2018-08-28T17:00:09.757Z,54.50
2018-08-28T17:02:38.559Z,54.60
2018-08-28T17:05:07.491Z,54.60
2018-08-28T17:07:37.004Z,54.60
2018-08-28T17:10:06.937Z,54.60
2018-08-28T17:12:38.967Z,54.60
2018-08-28T17:15:10.446Z,55.10
2018-08-28T17:17:40.895Z,54.60
2018-08-28T17:20:10.763Z,54.60
2018-08-28T17:22:40.790Z,54.60
2018-08-28T17:25:09.250Z,54.60
2018-08-28T17:27:38.473Z,54.60
2018-08-28T17:30:07.129Z,54.50
2018-08-28T17:32:35.599Z,54.60
2018-08-28T17:35:07.089Z,54.60
2018-08-28T17:37:37.245Z,54.60
2018-08-28T17:40:07.266Z,54.60
2018-08-28T17:42:35.893Z,54.50
2018-08-28T17:45:05.620Z,54.50
2018-08-28T17:47:34.037Z,54.50
2018-08-28T17:50:04.330Z,54.50
2018-08-28T17:52:33.268Z,54.50
2018-08-28T17:55:03.390Z,54.50
2018-08-28T17:57:32.789Z,54.50
2018-08-28T18:00:01.784Z,54.50
2018-08-28T18:02:30.496Z,54.50
2018-08-28T18:04:59.342Z,54.50
2018-08-28T18:07:27.724Z,54.50
2018-08-28T18:09:56.561Z,54.50
2018-08-28T18:12:25.240Z,54.50
2018-08-28T18:14:54.938Z,54.40
2018-08-28T18:17:23.420Z,54.50
2018-08-28T18:19:51.927Z,54.40
2018-08-28T18:22:20.393Z,54.10
2018-08-28T18:24:48.945Z,54.50
2018-08-28T18:27:17.523Z,54.50
2018-08-28T18:29:46.022Z,54.50
2018-08-28T18:32:14.824Z,54.50
2018-08-28T18:34:43.543Z,54.50
2018-08-28T18:37:11.959Z,54.50
2018-08-28T18:39:40.460Z,54.50
2018-08-28T18:42:13.539Z,54.50
2018-08-28T18:44:46.981Z,54.50
2018-08-28T18:47:15.676Z,54.50
2018-08-28T18:49:44.123Z,54.50
2018-08-28T18:52:16.474Z,54.50
2018-08-28T18:54:44.973Z,54.50
2018-08-28T18:57:13.518Z,54.50
2018-08-28T18:59:42.140Z,54.50
2018-08-28T19:02:10.788Z,54.50
2018-08-28T19:04:39.933Z,54.50
2018-08-28T19:07:08.405Z,54.50
2018-08-28T19:09:36.897Z,54.50
2018-08-28T19:12:05.275Z,54.50
2018-08-28T19:14:33.829Z,54.50
2018-08-28T19:17:02.339Z,54.50
2018-08-28T19:19:30.881Z,54.50
2018-08-28T19:21:59.316Z,54.50
2018-08-28T19:24:27.810Z,54.50
2018-08-28T19:26:56.331Z,54.50
2018-08-28T19:29:24.903Z,54.50
2018-08-28T19:31:53.610Z,54.50
2018-08-28T19:34:21.966Z,54.50
2018-08-28T19:36:50.469Z,54.40
2018-08-28T19:39:18.928Z,54.40
2018-08-28T19:41:47.487Z,54.50
2018-08-28T19:44:16.069Z,54.50
2018-08-28T19:46:44.562Z,54.50
2018-08-28T19:49:13.052Z,54.50
2018-08-28T19:51:41.667Z,54.40
2018-08-28T19:54:10.073Z,54.50
2018-08-28T19:56:38.603Z,54.50
2018-08-28T19:59:07.214Z,54.50
2018-08-28T20:01:35.759Z,54.50
2018-08-28T20:04:04.409Z,54.50
2018-08-28T20:06:32.822Z,54.50
2018-08-28T20:09:01.378Z,54.40
2018-08-28T20:11:29.793Z,54.40
2018-08-28T20:13:58.290Z,54.50
2018-08-28T20:16:26.783Z,54.40
2018-08-28T20:18:55.257Z,54.50
2018-08-28T20:21:23.701Z,54.40
2018-08-28T20:23:52.260Z,54.50
2018-08-28T20:26:20.686Z,54.50
2018-08-28T20:28:49.214Z,54.50
2018-08-28T20:31:17.628Z,54.50
2018-08-28T20:33:46.054Z,54.40
2018-08-28T20:36:14.598Z,54.40
2018-08-28T20:38:43.305Z,55.10
2018-08-28T20:41:11.778Z,54.40
2018-08-28T20:43:40.749Z,54.40
2018-08-28T20:46:09.128Z,55.10
2018-08-28T20:48:37.664Z,54.40
2018-08-28T20:51:06.699Z,54.50
2018-08-28T20:53:35.238Z,54.50
2018-08-28T20:56:03.869Z,54.40
2018-08-28T20:58:32.294Z,54.40
2018-08-28T21:01:00.863Z,54.40
2018-08-28T21:03:29.313Z,54.40
2018-08-28T21:05:57.810Z,53.90
2018-08-28T21:08:26.259Z,54.40
2018-08-28T21:10:54.753Z,54.40
2018-08-28T21:13:23.196Z,54.40
2018-08-28T21:15:51.640Z,54.40
2018-08-28T21:18:20.151Z,54.40
2018-08-28T21:20:48.654Z,54.40
2018-08-28T21:23:17.087Z,54.40
2018-08-28T21:25:45.558Z,54.40
2018-08-28T21:28:14.081Z,54.40
2018-08-28T21:30:42.611Z,54.40
2018-08-28T21:33:11.062Z,54.40
2018-08-28T21:35:39.794Z,54.50
2018-08-28T21:38:08.193Z,54.40
2018-08-28T21:40:36.616Z,54.40
2018-08-28T21:43:05.013Z,54.40
2018-08-28T21:45:33.481Z,54.40
2018-08-28T21:48:01.950Z,54.40
2018-08-28T21:50:30.357Z,54.50
2018-08-28T21:52:58.907Z,54.40
2018-08-28T21:55:27.486Z,54.40
2018-08-28T21:57:55.934Z,54.40
2018-08-28T22:00:24.468Z,54.50
2018-08-28T22:02:52.904Z,54.40
2018-08-28T22:05:26.646Z,54.40
2018-08-28T22:08:00.701Z,54.50
2018-08-28T22:10:29.678Z,54.40
2018-08-28T22:12:58.128Z,54.50
2018-08-28T22:15:26.498Z,54.40
2018-08-28T22:17:55.458Z,54.40
2018-08-28T22:20:23.905Z,54.70
2018-08-28T22:22:52.879Z,54.40
2018-08-28T22:25:21.533Z,54.50
2018-08-28T22:27:49.945Z,55.00
2018-08-28T22:30:18.473Z,54.40
2018-08-28T22:32:47.317Z,54.50
2018-08-28T22:35:15.742Z,54.50
2018-08-28T22:37:44.313Z,54.50
2018-08-28T22:40:13.201Z,54.50
2018-08-28T22:42:41.944Z,54.40
2018-08-28T22:45:10.504Z,54.40
2018-08-28T22:47:39.141Z,54.50
2018-08-28T22:50:07.537Z,54.40
2018-08-28T22:52:36.008Z,54.50
2018-08-28T22:55:04.549Z,55.00
2018-08-28T22:57:33.010Z,54.40
2018-08-28T23:00:01.513Z,54.40
2018-08-28T23:02:29.957Z,54.40
2018-08-28T23:04:58.406Z,54.40
2018-08-28T23:07:26.993Z,54.40
2018-08-28T23:09:55.501Z,54.40
2018-08-28T23:12:23.954Z,54.50
2018-08-28T23:14:52.465Z,54.50
2018-08-28T23:17:20.920Z,54.40
2018-08-28T23:19:49.398Z,54.40
2018-08-28T23:22:17.848Z,54.40
2018-08-28T23:24:46.347Z,54.90
2018-08-28T23:27:14.758Z,54.50
2018-08-28T23:29:43.165Z,54.40
2018-08-28T23:32:11.754Z,54.40
2018-08-28T23:34:40.570Z,54.40
2018-08-28T23:37:08.989Z,54.40
2018-08-28T23:39:37.528Z,54.40
2018-08-28T23:42:06.354Z,54.40
2018-08-28T23:44:34.769Z,54.40
2018-08-28T23:47:03.451Z,54.40
2018-08-28T23:49:31.932Z,54.40
2018-08-28T23:52:00.323Z,54.40
2018-08-28T23:54:28.830Z,54.40
2018-08-28T23:56:57.256Z,54.50
2018-08-28T23:59:25.941Z,54.50
